Airfield :
LOGIN :

Register | Disclaimer

   EN    FR    IT 

 










Legend :    VFR   Marginal VFR   IFR   Intensive IFR   Very Intensive IFR
Visi :
Ceiling :
>= 8 km
>= 3000ft
5 to 8 km
1000 to 3000 ft
1500m to 5 km
500 to 1000 ft
800 to 1500m
200 to 500 ft
< 800m
< 200 ft
Symbols :   Thunderstorms  Fog  Heavy snow  Heavy precipitations  Wind > 20 kt
SIGMETs :     Misc.  Thunderstorms  Icing  Turbulence  Mountain Waves  Volcanic Ashes






- Airport Elevation : 913 ft


LFSX - Luxeuil

CURRENT METAR :
  • 010230Z AUTO 02002KT 9999 ////// M03/M06 Q1020

EXPIRED METARs :
  • 010200Z AUTO VRB02KT 9999 ////// M03/M06 Q1021
  • 010130Z AUTO VRB02KT 9999 ////// M02/M06 Q1021
  • 010100Z AUTO 01003KT 9000 ////// M02/M06 Q1021
  • 010030Z AUTO VRB01KT 9999 ////// M02/M06 Q1021
  • 010000Z AUTO VRB01KT 9999 ////// M00/M05 Q1021
  • 312330Z AUTO VRB01KT 9999 ////// 01/M06 Q1021

TAF TAF LFSX
Valid from the 01 at 03:00 until the 02 at 03:00 UTC


010200Z 0103/0203 05005KT CAVOK



MET'MAP, your aeronautical weather chart ! - Copyright ORBIFLY December 2007 - Disclaimer

ORBIFLY MET'MAP TEAM :

Programming & Development : Alexandra Zaïnal
Concept & original design : Baudouin d'Aumeries
Assistance for programming : Marc-Olivier Méhu
Technical & hardware support : Manuel Goepfert

Contact : metmap@orbifly.com




SOURCES & CREDITS :

   NOAA